createdAt,value
2023-03-21T00:01:04.966Z,75
2023-03-21T00:16:20.414Z,106
2023-03-21T00:31:05.120Z,68
2023-03-21T00:46:05.000Z,68
2023-03-21T01:01:05.516Z,93
2023-03-21T01:16:05.227Z,101
2023-03-21T01:31:05.022Z,110
2023-03-21T01:46:05.158Z,86
2023-03-21T02:01:06.182Z,83
2023-03-21T02:16:05.738Z,77
2023-03-21T02:31:05.303Z,72
2023-03-21T02:46:05.291Z,65
2023-03-21T03:01:05.721Z,66
2023-03-21T03:16:04.089Z,67
2023-03-21T03:31:10.762Z,84
2023-03-21T03:46:04.999Z,81
2023-03-21T04:01:05.631Z,92
2023-03-21T04:16:04.985Z,84
2023-03-21T04:31:25.398Z,75
2023-03-21T04:46:05.683Z,84
2023-03-21T05:01:05.317Z,106
2023-03-21T05:16:04.647Z,148
2023-03-21T05:31:04.847Z,183
2023-03-21T05:46:05.539Z,146
2023-03-21T06:01:05.036Z,122
2023-03-21T06:16:05.569Z,88
2023-03-21T06:31:05.289Z,74
2023-03-21T06:46:05.916Z,87
2023-03-21T07:01:05.204Z,86
2023-03-21T07:16:05.995Z,65
2023-03-21T07:31:04.684Z,69
2023-03-21T07:46:06.363Z,73
2023-03-21T08:01:04.844Z,65
2023-03-21T08:16:05.937Z,72
2023-03-21T08:31:05.489Z,63
2023-03-21T08:46:06.022Z,62
2023-03-21T09:01:05.548Z,66
2023-03-21T09:16:05.906Z,68
2023-03-21T09:31:05.337Z,56
2023-03-21T09:46:05.770Z,51
2023-03-21T10:01:05.337Z,55
2023-03-21T10:16:06.009Z,50
2023-03-21T10:31:04.670Z,48
2023-03-21T10:46:06.045Z,43
2023-03-21T11:01:05.349Z,49
2023-03-21T11:16:05.716Z,45
2023-03-21T11:31:05.388Z,40
2023-03-21T11:46:05.136Z,33
2023-03-21T12:01:05.394Z,34
2023-03-21T12:16:04.592Z,32
2023-03-21T12:31:05.263Z,38
2023-03-21T12:46:05.492Z,39
2023-03-21T13:01:05.481Z,41
2023-03-21T13:16:05.864Z,36
2023-03-21T13:31:05.122Z,45
2023-03-21T13:46:05.706Z,39
2023-03-21T14:01:05.269Z,32
2023-03-21T14:16:06.954Z,45
2023-03-21T14:31:05.115Z,45
2023-03-21T14:46:05.367Z,35
2023-03-21T15:01:05.414Z,40
2023-03-21T15:16:05.974Z,66
2023-03-21T15:31:04.885Z,37
2023-03-21T15:46:05.220Z,43
2023-03-21T16:01:05.707Z,46
2023-03-21T16:16:05.008Z,38
2023-03-21T16:31:05.514Z,65
2023-03-21T16:46:05.231Z,47
2023-03-21T17:01:05.761Z,59
2023-03-21T17:16:05.233Z,69
2023-03-21T17:31:05.678Z,57
2023-03-21T17:46:05.330Z,57
2023-03-21T18:01:05.557Z,70
2023-03-21T18:16:05.048Z,58
2023-03-21T18:31:16.930Z,57
2023-03-21T18:46:05.464Z,61
2023-03-21T19:01:05.767Z,59
2023-03-21T19:16:05.244Z,60
2023-03-21T19:31:05.012Z,77
2023-03-21T19:46:06.208Z,68
2023-03-21T20:01:05.453Z,84
2023-03-21T20:16:05.844Z,134
2023-03-21T20:31:04.964Z,137
2023-03-21T20:46:05.274Z,115
2023-03-21T21:01:06.223Z,116
2023-03-21T21:16:05.696Z,153
2023-03-21T21:31:05.190Z,143
2023-03-21T21:46:05.625Z,122
2023-03-21T22:01:05.704Z,114
2023-03-21T22:16:05.639Z,114
2023-03-21T22:31:05.381Z,114
2023-03-21T22:46:06.174Z,145
2023-03-21T23:01:05.845Z,112
2023-03-21T23:16:04.841Z,112
2023-03-21T23:31:05.197Z,108
2023-03-21T23:46:06.051Z,110
